Guapore, Brazil
Current Conditions -  °F | °C
As of 9:00 AM on Friday 28 Nov 2014 (Local Time) from SBPF Reporting Station
Clear Clear  
Wind Chill: 66°   Ceiling: Unl
Heat Index: 66°   Visibility: 6mi
Dew Point: 59°   Wind: 23mph
Humidity: 78%   Direction: 70°ENE
Pressure: 30.03"   Gusts: NA
Location:  28.85°S, 51.89°W
Report Text: SBPF 281100Z 07020KT CAVOK 19/15 Q1017
Loading
Personal Weather Stations






























Interactive Weather Map New forecast layout! Learn more

10-Day Weather Forecast

Advertisements
Track Severe Weather on mobile